Time;durP1;ratioP1;P1;durP2;ratioP2;P2;SDS_P1;SDS_P2;PMS_P1;PMS_P2;Temp;Humidity;BMP_temperature;BMP_pressure;BME280_temperature;BME280_humidity;BME280_pressure;Samples;Min_cycle;Max_cycle;Signal;HPM_P1;HPM_P2
2023/06/19 00:01:34;;;;;;;11.03;7.97;;;14.60;99.90;13.90;100287;;;;573003;247;24131;-80
2023/06/19 00:04:02;;;;;;;10.03;8.17;;;14.60;99.90;13.90;100289;;;;572800;247;24079;-80
2023/06/19 00:06:30;;;;;;;10.87;8.47;;;14.50;99.90;13.80;100290;;;;573039;247;24069;-80
2023/06/19 00:08:58;;;;;;;16.00;9.20;;;14.50;99.90;13.80;100292;;;;572578;247;24126;-81
2023/06/19 00:11:26;;;;;;;11.30;8.90;;;14.40;99.90;13.70;100307;;;;572818;247;24111;-80
2023/06/19 00:13:54;;;;;;;8.60;7.77;;;14.40;99.90;13.70;100308;;;;572984;247;24082;-80
2023/06/19 00:16:24;;;;;;;10.50;8.57;;;14.30;99.90;13.60;100308;;;;573042;247;24074;-80
2023/06/19 00:18:50;;;;;;;9.70;8.13;;;14.30;99.90;13.60;100304;;;;572863;247;24079;-79
2023/06/19 00:21:18;;;;;;;10.70;8.67;;;14.30;99.90;13.50;100314;;;;573801;246;24052;-80
2023/06/19 00:23:45;;;;;;;12.40;8.97;;;14.20;99.90;13.50;100320;;;;574204;247;24124;-78
2023/06/19 00:26:14;;;;;;;9.63;8.43;;;14.20;99.90;13.50;100322;;;;574315;247;25202;-80
2023/06/19 00:28:43;;;;;;;12.53;9.73;;;14.20;99.90;13.40;100325;;;;574502;247;24096;-80
2023/06/19 00:31:13;;;;;;;14.50;9.90;;;14.10;99.90;13.40;100335;;;;574121;247;24115;-80
2023/06/19 00:33:37;;;;;;;16.90;13.50;;;14.00;99.90;13.40;100321;;;;568618;247;35252;-80
2023/06/19 00:36:05;;;;;;;17.20;10.90;;;14.00;99.90;13.30;100335;;;;573713;247;24118;-80
2023/06/19 00:38:33;;;;;;;13.33;9.97;;;14.00;99.90;13.30;100335;;;;573210;247;24069;-79
2023/06/19 00:41:01;;;;;;;13.17;9.80;;;14.00;99.90;13.30;100330;;;;573188;247;24059;-80
2023/06/19 00:43:29;;;;;;;12.47;9.60;;;13.90;99.90;13.20;100334;;;;572954;247;24140;-79
2023/06/19 00:45:57;;;;;;;14.87;9.13;;;13.90;99.90;13.20;100325;;;;573344;247;24073;-80
2023/06/19 00:48:25;;;;;;;20.10;10.50;;;13.90;99.90;13.20;100330;;;;573607;247;24116;-80
2023/06/19 00:50:53;;;;;;;11.57;9.67;;;13.90;99.90;13.20;100322;;;;573171;247;24119;-79
2023/06/19 00:53:24;;;;;;;11.97;9.17;;;13.80;99.90;13.20;100342;;;;572989;247;24088;-81
2023/06/19 00:55:52;;;;;;;10.50;8.97;;;13.80;99.90;13.10;100330;;;;572584;247;24223;-79
2023/06/19 00:58:19;;;;;;;12.07;9.87;;;13.80;99.90;13.10;100333;;;;572850;247;24189;-79
2023/06/19 01:00:47;;;;;;;14.23;9.43;;;13.80;99.90;13.10;100323;;;;572537;247;24090;-78
2023/06/19 01:03:15;;;;;;;14.37;10.37;;;13.70;99.90;13.00;100324;;;;573616;247;24129;-80
2023/06/19 01:05:40;;;;;;;11.87;9.90;;;13.70;99.90;13.00;100332;;;;573433;247;24153;-80
2023/06/19 01:08:19;;;;;;;12.30;9.87;;;13.70;99.90;13.00;100331;;;;573679;247;24078;-81
2023/06/19 01:10:47;;;;;;;13.07;9.67;;;13.70;99.90;12.90;100321;;;;572153;247;24078;-79
2023/06/19 01:13:55;;;;;;;13.47;10.00;;;13.60;99.90;12.90;100323;;;;573327;247;24163;-79
2023/06/19 01:16:21;;;;;;;12.43;9.87;;;13.60;99.90;12.90;100325;;;;573386;247;24082;-81
2023/06/19 01:18:50;;;;;;;15.43;10.27;;;13.50;99.90;12.90;100319;;;;573053;247;24156;-79
2023/06/19 01:21:17;;;;;;;13.20;10.03;;;13.50;99.90;12.80;100315;;;;573177;247;24132;-79
2023/06/19 01:23:45;;;;;;;11.47;9.47;;;13.50;99.90;12.80;100335;;;;573115;247;24133;-79
2023/06/19 01:26:10;;;;;;;12.27;9.67;;;13.50;99.90;12.80;100322;;;;572992;247;24101;-81
2023/06/19 01:28:42;;;;;;;15.07;10.50;;;13.50;99.90;12.80;100330;;;;573085;247;24061;-81
2023/06/19 01:31:15;;;;;;;13.37;10.43;;;13.40;99.90;12.70;100321;;;;573175;247;24086;-80
2023/06/19 01:33:47;;;;;;;16.77;10.37;;;13.40;99.90;12.70;100313;;;;573628;246;24073;-80
2023/06/19 01:36:14;;;;;;;13.20;10.07;;;13.40;99.90;12.70;100318;;;;574456;247;24074;-80
2023/06/19 01:38:45;;;;;;;14.10;9.70;;;13.40;99.90;12.70;100314;;;;574185;247;24098;-79
2023/06/19 01:41:09;;;;;;;12.23;10.17;;;13.40;99.90;12.70;100316;;;;573880;247;24065;-80
2023/06/19 01:43:37;;;;;;;12.83;10.23;;;13.40;99.90;12.70;100312;;;;573717;247;24107;-78
2023/06/19 01:46:07;;;;;;;12.87;10.73;;;13.40;99.90;12.70;100314;;;;573018;247;24107;-80
2023/06/19 01:48:32;;;;;;;13.40;10.10;;;13.40;99.90;12.70;100317;;;;572994;247;24084;-80
2023/06/19 01:51:04;;;;;;;13.30;10.63;;;13.40;99.90;12.70;100314;;;;572884;247;24105;-80
2023/06/19 01:53:29;;;;;;;13.20;10.70;;;13.40;99.90;12.70;100316;;;;572664;247;24080;-79
2023/06/19 01:55:59;;;;;;;13.27;10.73;;;13.40;99.90;12.70;100313;;;;572594;247;24108;-79
2023/06/19 01:58:24;;;;;;;15.00;11.23;;;13.40;99.90;12.70;100321;;;;572799;247;24083;-77
2023/06/19 02:00:52;;;;;;;13.10;9.93;;;13.40;99.90;12.70;100320;;;;573031;247;24081;-79
2023/06/19 02:03:20;;;;;;;15.63;11.83;;;13.40;99.90;12.70;100322;;;;572877;247;24120;-78
2023/06/19 02:05:49;;;;;;;12.53;10.43;;;13.40;99.90;12.70;100318;;;;572998;247;24088;-80
2023/06/19 02:08:17;;;;;;;14.90;11.10;;;13.40;99.90;12.70;100313;;;;573282;247;24075;-79
2023/06/19 02:10:44;;;;;;;19.13;12.73;;;13.40;99.90;12.70;100319;;;;572997;247;24097;-79
2023/06/19 02:13:16;;;;;;;12.27;10.93;;;13.40;99.90;12.70;100314;;;;572978;247;24127;-79
2023/06/19 02:15:44;;;;;;;14.83;10.87;;;13.40;99.90;12.70;100318;;;;572839;247;24071;-80
2023/06/19 02:18:13;;;;;;;19.73;11.53;;;13.40;99.90;12.70;100321;;;;572199;247;24070;-79
2023/06/19 02:20:44;;;;;;;16.17;11.63;;;13.40;99.90;12.70;100311;;;;571915;247;24091;-81
2023/06/19 02:23:11;;;;;;;15.23;11.53;;;13.30;99.90;12.70;100310;;;;572153;247;24120;-79
2023/06/19 02:25:39;;;;;;;14.60;11.37;;;13.30;99.90;12.70;100311;;;;572025;247;24143;-79
2023/06/19 02:28:07;;;;;;;12.90;10.83;;;13.30;99.90;12.60;100314;;;;572472;247;24059;-78
2023/06/19 02:30:35;;;;;;;15.50;11.13;;;13.30;99.90;12.70;100322;;;;573435;247;24065;-79
2023/06/19 02:33:03;;;;;;;13.97;10.20;;;13.30;99.90;12.70;100306;;;;573057;247;24071;-79
2023/06/19 02:35:31;;;;;;;16.23;11.63;;;13.30;99.90;12.70;100304;;;;572529;247;24108;-79
2023/06/19 02:37:59;;;;;;;16.40;10.63;;;13.30;99.90;12.70;100312;;;;572090;247;24092;-79
2023/06/19 02:40:27;;;;;;;15.37;11.63;;;13.30;99.90;12.70;100307;;;;572195;247;24073;-80
2023/06/19 02:42:58;;;;;;;15.03;11.57;;;13.30;99.90;12.70;100315;;;;572474;247;24110;-77
2023/06/19 02:45:23;;;;;;;14.03;11.67;;;13.30;99.90;12.70;100312;;;;574306;246;24143;-79
2023/06/19 02:47:54;;;;;;;14.30;10.43;;;13.40;99.90;12.70;100304;;;;573858;247;24126;-79
2023/06/19 02:50:19;;;;;;;17.87;12.20;;;13.40;99.90;12.70;100302;;;;572999;247;24095;-79
2023/06/19 02:52:47;;;;;;;13.27;10.07;;;13.40;99.90;12.80;100306;;;;573139;247;24053;-80
2023/06/19 02:55:15;;;;;;;18.97;12.30;;;13.40;99.90;12.80;100294;;;;573021;247;24065;-81
2023/06/19 02:57:44;;;;;;;17.90;12.40;;;13.50;99.90;12.90;100295;;;;572909;247;24075;-79
2023/06/19 03:00:14;;;;;;;14.87;12.07;;;13.50;99.90;12.90;100292;;;;572608;247;24128;-78
2023/06/19 03:02:43;;;;;;;17.13;12.10;;;13.50;99.90;13.00;100289;;;;569868;247;24059;-79
2023/06/19 03:05:07;;;;;;;17.83;12.50;;;13.60;99.90;13.00;100293;;;;572260;247;24119;-78
2023/06/19 03:07:35;;;;;;;14.90;11.53;;;13.60;99.90;13.10;100295;;;;572723;247;24149;-79
2023/06/19 03:10:03;;;;;;;19.40;11.50;;;13.70;99.90;13.10;100295;;;;572407;247;24059;-80
2023/06/19 03:12:31;;;;;;;21.47;12.00;;;13.80;99.90;13.30;100298;;;;572275;247;24090;-79
2023/06/19 03:14:59;;;;;;;13.67;12.03;;;13.90;99.90;13.70;100297;;;;572446;247;24059;-79
2023/06/19 03:17:27;;;;;;;15.13;12.30;;;14.20;99.90;14.30;100288;;;;572685;247;24054;-80
2023/06/19 03:19:55;;;;;;;18.03;13.30;;;14.70;99.90;14.90;100296;;;;572713;247;24049;-81
2023/06/19 03:22:23;;;;;;;17.30;12.23;;;15.30;99.90;15.60;100299;;;;572605;247;24063;-79
2023/06/19 03:24:51;;;;;;;14.37;12.57;;;15.90;99.90;16.20;100299;;;;572667;247;24078;-80
2023/06/19 03:27:19;;;;;;;18.27;12.17;;;16.60;99.90;16.80;100296;;;;572648;247;24109;-79
2023/06/19 03:29:47;;;;;;;15.03;13.10;;;17.80;99.90;17.30;100301;;;;572636;247;24052;-78
2023/06/19 03:32:16;;;;;;;13.90;11.90;;;18.40;99.90;17.90;100307;;;;572401;247;24071;-79
2023/06/19 03:34:45;;;;;;;12.17;10.93;;;18.90;99.90;18.40;100309;;;;572334;245;25124;-80
2023/06/19 03:37:13;;;;;;;12.33;10.33;;;19.50;99.90;18.90;100306;;;;572398;247;24087;-79
2023/06/19 03:39:46;;;;;;;10.80;9.73;;;20.10;99.90;19.50;100303;;;;572003;247;24117;-79
2023/06/19 03:42:10;;;;;;;9.80;8.90;;;20.00;99.90;20.20;100305;;;;571818;247;23086;-80
2023/06/19 03:44:38;;;;;;;10.87;9.83;;;20.80;99.90;20.80;100306;;;;572129;247;24128;-78
2023/06/19 03:47:06;;;;;;;11.30;10.10;;;21.40;99.90;21.40;100302;;;;572383;247;24048;-79
2023/06/19 03:49:34;;;;;;;10.67;9.27;;;22.00;99.90;22.00;100307;;;;572361;247;24056;-80
2023/06/19 03:52:02;;;;;;;10.17;9.17;;;22.60;99.90;22.50;100305;;;;572392;247;24084;-78
2023/06/19 03:54:30;;;;;;;10.10;9.20;;;23.10;99.90;23.00;100301;;;;570043;247;24109;-79
2023/06/19 03:56:57;;;;;;;10.27;9.37;;;23.60;99.90;23.50;100299;;;;573719;246;24043;-80
2023/06/19 03:59:25;;;;;;;10.60;9.50;;;24.20;99.90;24.10;100306;;;;573106;247;23145;-79
2023/06/19 04:01:53;;;;;;;9.93;9.03;;;24.80;99.90;24.80;100307;;;;573425;247;23122;-79
2023/06/19 04:04:21;;;;;;;10.67;9.00;;;25.40;99.90;25.30;100304;;;;573242;247;23085;-80
2023/06/19 04:06:49;;;;;;;10.00;9.10;;;25.90;99.90;25.80;100311;;;;572954;247;23100;-79
2023/06/19 04:09:17;;;;;;;9.80;9.00;;;26.40;99.90;26.20;100317;;;;573114;247;23087;-80
2023/06/19 04:11:45;;;;;;;9.70;8.10;;;26.90;99.90;26.40;100313;;;;572984;247;23091;-79
2023/06/19 04:14:13;;;;;;;9.33;8.50;;;27.20;99.90;27.00;100318;;;;572669;247;23127;-81
2023/06/19 04:16:41;;;;;;;9.57;8.53;;;27.70;99.90;27.60;100330;;;;572800;247;23106;-80
2023/06/19 04:19:12;;;;;;;8.90;8.10;;;28.30;99.90;28.10;100325;;;;572944;247;23162;-80
2023/06/19 04:21:37;;;;;;;10.15;8.27;;;28.80;99.90;28.60;100325;;;;572907;247;23133;-80
2023/06/19 04:24:08;;;;;;;9.38;8.55;;;29.30;98.20;29.20;100336;;;;573102;247;23075;-79
2023/06/19 04:26:32;;;;;;;8.38;7.50;;;30.00;96.60;29.90;100335;;;;572639;247;24122;-80
2023/06/19 04:29:01;;;;;;;10.48;9.48;;;30.70;94.40;30.40;100337;;;;572745;247;23106;-80
2023/06/19 04:31:31;;;;;;;13.93;9.60;;;31.30;92.70;30.90;100343;;;;572586;247;23077;-80
2023/06/19 04:33:57;;;;;;;12.32;8.93;;;32.30;89.00;31.40;100344;;;;572287;247;23185;-80
2023/06/19 04:36:29;;;;;;;10.93;8.75;;;32.80;86.00;31.90;100351;;;;572400;247;24122;-80
2023/06/19 04:38:54;;;;;;;13.27;8.93;;;33.40;83.10;32.50;100347;;;;572067;247;23155;-80
2023/06/19 04:41:22;;;;;;;15.52;8.13;;;33.30;83.00;33.10;100349;;;;571927;247;23130;-81
2023/06/19 04:43:50;;;;;;;12.40;8.55;;;34.00;79.00;33.50;100350;;;;572133;247;23129;-80
2023/06/19 04:46:20;;;;;;;11.18;8.02;;;34.60;76.50;34.20;100351;;;;572110;247;23073;-79
2023/06/19 04:48:50;;;;;;;8.55;7.75;;;35.30;73.80;34.80;100351;;;;572351;247;24106;-82
2023/06/19 04:51:14;;;;;;;8.55;7.50;;;36.00;70.80;35.40;100358;;;;572157;247;23125;-81
2023/06/19 04:53:42;;;;;;;9.57;6.55;;;36.60;67.80;35.90;100354;;;;572360;247;23084;-80
2023/06/19 04:56:10;;;;;;;7.62;6.85;;;37.10;64.80;36.40;100361;;;;572464;247;23099;-81
2023/06/19 04:58:45;;;;;;;7.65;6.30;;;37.70;62.50;36.90;100362;;;;572206;247;23105;-81
2023/06/19 05:01:09;;;;;;;6.65;6.10;;;38.60;57.80;37.40;100358;;;;571603;247;23085;-82
2023/06/19 05:03:35;;;;;;;7.10;5.50;;;38.90;56.70;37.60;100363;;;;572054;247;23173;-83
2023/06/19 05:06:03;;;;;;;6.55;5.93;;;38.90;56.40;37.80;100373;;;;572047;247;23080;-82
2023/06/19 05:08:31;;;;;;;6.32;5.82;;;39.20;55.80;38.30;100371;;;;573428;246;23106;-82
2023/06/19 05:10:59;;;;;;;7.87;5.62;;;39.60;54.80;38.90;100375;;;;573108;247;23085;-82
2023/06/19 05:13:27;;;;;;;6.62;6.10;;;40.10;52.90;39.10;100377;;;;572773;247;23165;-82
2023/06/19 05:15:56;;;;;;;6.05;5.53;;;40.40;52.70;39.50;100380;;;;572849;247;23187;-83
2023/06/19 05:18:23;;;;;;;7.05;6.45;;;40.70;51.50;39.80;100378;;;;572985;247;23097;-81
2023/06/19 05:20:50;;;;;;;9.50;5.80;;;41.00;51.00;40.10;100380;;;;572936;247;24105;-83
2023/06/19 05:23:19;;;;;;;8.13;5.70;;;41.60;50.20;40.40;100379;;;;572970;247;23097;-81
2023/06/19 05:25:48;;;;;;;7.00;6.40;;;41.90;49.40;40.80;100375;;;;572800;247;23102;-82
2023/06/19 05:28:17;;;;;;;6.80;5.72;;;42.20;48.70;41.00;100381;;;;572778;247;23084;-83
2023/06/19 05:30:44;;;;;;;6.32;5.72;;;42.10;48.60;41.60;100379;;;;572856;247;23091;-84
2023/06/19 05:33:15;;;;;;;7.12;5.78;;;42.60;48.60;42.00;100386;;;;572932;247;23159;-83
2023/06/19 05:35:40;;;;;;;7.85;5.35;;;43.00;47.50;42.40;100390;;;;572725;247;23083;-83
2023/06/19 05:38:08;;;;;;;8.40;5.70;;;43.40;47.10;42.80;100390;;;;572733;247;23074;-83
2023/06/19 05:40:36;;;;;;;5.32;4.82;;;43.70;46.20;43.20;100393;;;;573098;247;23069;-80
2023/06/19 05:43:04;;;;;;;6.87;5.55;;;44.10;45.60;43.40;100395;;;;573230;247;23084;-82
2023/06/19 05:45:32;;;;;;;15.57;6.35;;;44.40;45.00;43.70;100399;;;;572350;247;24107;-83
2023/06/19 05:48:00;;;;;;;7.05;5.75;;;44.60;44.10;44.00;100403;;;;572473;247;24226;-84
2023/06/19 05:50:28;;;;;;;6.47;5.87;;;45.00;43.80;44.60;100400;;;;572454;247;23085;-83
2023/06/19 05:52:56;;;;;;;12.18;6.00;;;45.30;43.60;45.20;100411;;;;572419;247;23092;-84
2023/06/19 05:55:27;;;;;;;6.35;5.80;;;45.80;41.50;45.20;100413;;;;572404;247;23132;-83
2023/06/19 05:57:51;;;;;;;6.28;4.57;;;45.90;40.90;45.10;100419;;;;572002;247;23085;-85
2023/06/19 06:00:20;;;;;;;7.28;5.18;;;46.00;41.20;45.40;100422;;;;572466;247;23061;-84
2023/06/19 06:02:51;;;;;;;8.73;5.53;;;46.20;41.20;45.60;100420;;;;572009;247;24126;-83
2023/06/19 06:05:18;;;;;;;12.13;6.03;;;46.40;40.80;45.80;100423;;;;572049;247;23105;-84
2023/06/19 06:07:48;;;;;;;6.53;5.07;;;46.40;40.80;46.30;100425;;;;572053;247;23127;-84
2023/06/19 06:10:16;;;;;;;8.48;5.15;;;46.80;40.40;46.70;100422;;;;571905;247;23073;-84
2023/06/19 06:12:40;;;;;;;13.88;5.95;;;47.10;40.20;47.00;100425;;;;571836;247;24095;-84
2023/06/19 06:15:08;;;;;;;13.80;6.12;;;47.50;40.00;47.30;100423;;;;572084;247;23113;-84
2023/06/19 06:17:36;;;;;;;9.13;5.53;;;47.80;39.10;47.40;100427;;;;572489;247;23107;-83
2023/06/19 06:20:14;;;;;;;6.97;4.55;;;48.00;38.60;47.60;100431;;;;573937;246;23116;-84
2023/06/19 06:22:41;;;;;;;7.30;4.30;;;48.00;38.40;48.00;100430;;;;573952;247;23131;-84
2023/06/19 06:25:10;;;;;;;4.57;4.07;;;48.50;38.20;48.40;100429;;;;573425;247;23130;-84
2023/06/19 06:27:37;;;;;;;11.12;4.70;;;48.80;37.90;48.50;100432;;;;573536;247;23122;-84
2023/06/19 06:30:05;;;;;;;28.05;8.23;;;49.00;37.20;48.80;100438;;;;573630;247;23069;-84
2023/06/19 06:32:33;;;;;;;4.03;3.83;;;49.00;37.20;48.70;100436;;;;573231;247;24333;-83
2023/06/19 06:35:04;;;;;;;4.97;4.53;;;49.20;36.60;48.50;100437;;;;573157;247;23113;-83
2023/06/19 06:37:29;;;;;;;5.10;3.92;;;49.00;36.80;48.50;100435;;;;573222;247;23090;-83
2023/06/19 06:39:57;;;;;;;4.30;4.10;;;48.90;36.70;48.80;100439;;;;572911;247;23110;-83
2023/06/19 06:42:25;;;;;;;4.22;3.97;;;49.10;36.40;49.20;100428;;;;572783;247;24142;-83
2023/06/19 06:44:53;;;;;;;10.25;5.10;;;49.40;35.80;49.60;100434;;;;572458;247;23119;-83
2023/06/19 06:47:21;;;;;;;4.97;4.53;;;49.80;35.90;49.70;100433;;;;572631;247;23076;-83
2023/06/19 06:49:49;;;;;;;3.95;3.75;;;50.00;35.50;49.80;100436;;;;572980;247;23128;-83
2023/06/19 06:52:17;;;;;;;4.53;4.22;;;50.00;35.60;49.80;100434;;;;573009;247;23130;-84
2023/06/19 06:54:44;;;;;;;5.18;4.70;;;50.00;34.50;49.70;100440;;;;572674;247;23128;-83
2023/06/19 06:57:12;;;;;;;4.57;4.15;;;50.00;34.70;50.10;100440;;;;572567;247;23096;-83
2023/06/19 06:59:40;;;;;;;4.62;4.22;;;50.30;34.40;50.40;100430;;;;572233;247;23082;-84
2023/06/19 07:02:12;;;;;;;4.57;3.90;;;50.60;33.80;50.80;100432;;;;572124;247;23094;-85
2023/06/19 07:04:36;;;;;;;4.43;3.50;;;51.00;33.70;51.30;100444;;;;571908;247;23111;-84
2023/06/19 07:07:05;;;;;;;4.10;3.72;;;51.50;33.30;51.50;100446;;;;572262;247;23150;-83
2023/06/19 07:09:36;;;;;;;7.37;4.22;;;51.80;32.90;51.50;100442;;;;572101;247;23136;-83
2023/06/19 07:12:04;;;;;;;4.57;4.28;;;51.80;33.00;51.60;100441;;;;572082;247;23084;-83
2023/06/19 07:14:28;;;;;;;4.65;4.35;;;51.90;32.90;51.90;100446;;;;571800;247;23116;-83
2023/06/19 07:16:56;;;;;;;4.28;4.07;;;52.20;32.30;52.00;100444;;;;572200;247;23123;-82
2023/06/19 07:19:25;;;;;;;4.82;4.53;;;52.00;32.20;51.50;100453;;;;572610;247;24133;-81
2023/06/19 07:21:53;;;;;;;4.68;4.28;;;52.00;32.20;51.50;100452;;;;572510;247;23132;-82
2023/06/19 07:24:25;;;;;;;5.90;5.18;;;51.90;32.30;51.50;100458;;;;572629;247;24125;-83
2023/06/19 07:26:54;;;;;;;7.47;4.05;;;51.90;32.40;51.90;100454;;;;572433;247;23088;-81
2023/06/19 07:29:19;;;;;;;4.25;3.85;;;52.10;32.70;52.40;100458;;;;572424;247;23103;-83
2023/06/19 07:31:47;;;;;;;7.90;3.70;;;52.50;32.90;52.90;100464;;;;573670;246;23186;-83
2023/06/19 07:34:15;;;;;;;8.68;4.53;;;53.00;32.80;53.30;100459;;;;573563;247;23138;-83
2023/06/19 07:36:43;;;;;;;5.87;4.28;;;53.40;32.00;53.30;100458;;;;573250;247;23093;-83
2023/06/19 07:39:14;;;;;;;4.35;4.07;;;53.50;31.80;53.30;100472;;;;573356;247;23074;-83
2023/06/19 07:41:39;;;;;;;4.70;4.30;;;53.60;31.60;53.40;100464;;;;570186;247;23088;-83
2023/06/19 07:44:07;;;;;;;14.35;4.43;;;53.70;31.70;53.60;100463;;;;572991;247;23087;-83
2023/06/19 07:46:38;;;;;;;5.57;4.15;;;53.70;31.60;53.80;100463;;;;572923;247;24165;-83
2023/06/19 07:49:04;;;;;;;4.05;3.85;;;54.10;31.10;54.00;100471;;;;572605;247;23141;-81
2023/06/19 07:51:32;;;;;;;4.90;3.45;;;54.40;30.30;54.40;100466;;;;573030;247;23121;-82
2023/06/19 07:54:00;;;;;;;4.00;3.67;;;54.40;30.20;54.20;100469;;;;572974;247;23145;-83
2023/06/19 07:56:28;;;;;;;5.22;3.83;;;54.50;30.70;54.40;100469;;;;573039;247;23134;-83
2023/06/19 07:58:56;;;;;;;4.32;3.95;;;54.50;30.90;54.80;100470;;;;572598;247;24132;-83
2023/06/19 08:01:24;;;;;;;6.28;3.22;;;54.80;30.00;54.70;100475;;;;572474;247;23072;-83
2023/06/19 08:03:53;;;;;;;4.95;3.58;;;54.90;29.90;54.30;100476;;;;572578;247;23120;-83
2023/06/19 08:06:21;;;;;;;3.35;3.25;;;54.70;29.70;54.20;100474;;;;572510;247;23081;-83
2023/06/19 08:08:51;;;;;;;3.87;3.67;;;54.60;30.00;54.10;100481;;;;572154;247;23111;-83
2023/06/19 08:11:18;;;;;;;4.87;3.55;;;54.50;30.10;54.20;100473;;;;572178;247;23088;-83
2023/06/19 08:13:46;;;;;;;3.40;3.20;;;54.40;30.00;54.00;100473;;;;572116;247;23130;-81
2023/06/19 08:16:17;;;;;;;3.70;3.40;;;54.30;30.00;53.20;100478;;;;572192;247;23150;-84
2023/06/19 08:18:43;;;;;;;3.45;3.08;;;53.70;30.00;51.90;100476;;;;572068;247;23112;-82
2023/06/19 08:21:11;;;;;;;3.60;3.40;;;52.80;29.80;50.10;100476;;;;572801;247;24128;-79
2023/06/19 08:23:43;;;;;;;3.45;3.30;;;51.40;30.40;49.10;100477;;;;573328;247;23174;-79
2023/06/19 08:26:07;;;;;;;3.67;3.47;;;50.20;31.80;48.40;100477;;;;573064;247;23111;-80
2023/06/19 08:28:35;;;;;;;9.88;4.60;;;49.40;32.60;47.70;100478;;;;573181;247;23087;-81
2023/06/19 08:31:05;;;;;;;10.02;4.60;;;48.50;33.60;47.30;100474;;;;573179;247;23154;-82
2023/06/19 08:33:37;;;;;;;4.45;4.03;;;47.80;33.80;47.40;100478;;;;573274;247;23081;-82
2023/06/19 08:36:05;;;;;;;13.00;5.35;;;47.70;33.70;47.10;100477;;;;573371;247;23135;-81
2023/06/19 08:38:36;;;;;;;13.18;5.47;;;47.60;35.00;46.70;100489;;;;573432;247;23086;-83
2023/06/19 08:41:10;;;;;;;10.00;5.03;;;47.30;35.90;46.00;100489;;;;572981;247;23096;-82
2023/06/19 08:43:41;;;;;;;10.10;5.57;;;46.70;36.30;44.90;100488;;;;574475;246;23088;-81
2023/06/19 08:46:15;;;;;;;5.87;5.07;;;45.90;36.90;44.00;100490;;;;573537;247;23086;-83
2023/06/19 08:48:39;;;;;;;13.00;5.53;;;45.00;37.70;43.20;100483;;;;573301;247;23090;-82
2023/06/19 08:51:09;;;;;;;15.32;5.07;;;44.10;38.80;42.80;100485;;;;573202;247;23102;-83
2023/06/19 08:53:38;;;;;;;5.47;4.43;;;43.50;39.30;43.20;100487;;;;573160;247;23166;-81
2023/06/19 08:56:11;;;;;;;4.90;4.57;;;43.40;40.10;44.30;100479;;;;569263;247;24375;-82
2023/06/19 08:58:42;;;;;;;4.95;4.45;;;44.30;39.20;45.70;100481;;;;572579;247;23095;-81
2023/06/19 09:01:06;;;;;;;20.75;5.78;;;45.50;38.30;47.60;100476;;;;573214;247;23148;-81
2023/06/19 09:03:34;;;;;;;7.93;4.45;;;47.40;36.40;49.20;100476;;;;572791;247;23072;-81
2023/06/19 09:06:11;;;;;;;6.65;4.85;;;49.10;35.20;49.60;100473;;;;567423;247;35366;-81
2023/06/19 09:08:40;;;;;;;9.80;4.87;;;50.10;34.40;50.00;100472;;;;572463;247;23080;-82
2023/06/19 09:11:07;;;;;;;5.97;4.30;;;50.60;34.50;50.90;100476;;;;572514;247;23136;-83
2023/06/19 09:13:38;;;;;;;7.95;4.55;;;51.40;33.30;51.70;100469;;;;572589;247;23159;-83
2023/06/19 09:16:07;;;;;;;4.68;4.37;;;52.80;32.50;52.00;100454;;;;572287;247;23112;-83
2023/06/19 09:18:46;;;;;;;8.43;4.30;;;52.80;32.40;52.50;100461;;;;572547;247;24117;-83
2023/06/19 09:21:24;;;;;;;4.25;4.05;;;53.20;32.40;53.10;100463;;;;572360;247;23110;-83
2023/06/19 09:23:51;;;;;;;11.25;4.75;;;53.80;31.10;53.70;100464;;;;580915;247;23079;-83
2023/06/19 09:26:21;;;;;;;14.82;4.80;;;55.00;31.00;54.10;100451;;;;572477;247;23105;-84
2023/06/19 09:28:45;;;;;;;11.35;5.80;;;55.00;31.00;53.90;100459;;;;569954;247;23070;-83
2023/06/19 09:31:13;;;;;;;16.65;5.80;;;54.90;31.20;54.20;100452;;;;572663;247;23096;-83
2023/06/19 09:33:41;;;;;;;15.45;5.10;;;55.20;31.00;55.10;100459;;;;572898;247;23071;-84
2023/06/19 09:36:09;;;;;;;6.03;4.35;;;55.80;30.60;55.40;100451;;;;572818;247;23116;-82
2023/06/19 09:38:40;;;;;;;7.50;4.40;;;56.40;31.20;55.80;100444;;;;572425;247;23064;-81
2023/06/19 09:41:04;;;;;;;7.60;4.25;;;56.90;30.00;55.40;100448;;;;572014;247;23080;-81
2023/06/19 09:43:41;;;;;;;6.43;4.65;;;56.50;30.00;55.70;100447;;;;572287;247;23092;-83
2023/06/19 09:46:09;;;;;;;15.07;4.70;;;56.70;29.80;56.30;100445;;;;572284;247;23077;-82
2023/06/19 09:48:37;;;;;;;26.00;4.93;;;57.20;29.40;56.70;100450;;;;572496;247;23124;-83
2023/06/19 09:51:20;;;;;;;7.55;4.45;;;57.70;29.40;57.00;100443;;;;572049;247;23137;-83
2023/06/19 09:53:51;;;;;;;7.47;4.65;;;58.10;29.00;55.30;100445;;;;573105;246;23081;-83
2023/06/19 09:56:19;;;;;;;6.05;4.40;;;56.80;29.30;55.50;100442;;;;574055;247;23075;-82
2023/06/19 09:58:44;;;;;;;4.72;4.32;;;56.60;29.40;55.70;100442;;;;573363;247;23129;-82
2023/06/19 10:01:15;;;;;;;22.37;5.50;;;56.80;29.60;55.90;100446;;;;573815;247;23088;-83
2023/06/19 10:03:42;;;;;;;5.85;4.75;;;57.10;29.40;56.60;100441;;;;573643;247;23169;-83
2023/06/19 10:06:07;;;;;;;7.10;5.03;;;57.70;29.40;56.30;100453;;;;573761;247;23163;-83
2023/06/19 10:08:41;;;;;;;5.25;4.82;;;57.80;29.10;55.60;100448;;;;573101;247;23083;-83
2023/06/19 10:11:12;;;;;;;6.35;4.50;;;57.30;29.00;54.70;100453;;;;573261;247;23111;-84
2023/06/19 10:13:40;;;;;;;5.00;4.70;;;56.60;29.00;54.40;100449;;;;572751;247;23073;-84
2023/06/19 10:16:05;;;;;;;11.43;5.32;;;55.90;29.60;54.60;100452;;;;572290;247;23123;-83
2023/06/19 10:18:37;;;;;;;9.90;5.93;;;55.70;29.70;54.30;100449;;;;572386;247;23111;-83
2023/06/19 10:21:01;;;;;;;9.07;6.93;;;55.60;30.00;52.60;100454;;;;572246;247;23068;-82
2023/06/19 10:23:29;;;;;;;11.38;6.65;;;54.40;30.40;49.10;100458;;;;572339;247;23079;-81
2023/06/19 10:26:03;;;;;;;7.22;5.53;;;51.70;32.00;46.30;100465;;;;572944;247;23166;-81
2023/06/19 10:28:27;;;;;;;7.97;6.20;;;48.60;34.20;43.50;100460;;;;572815;247;23098;-81
2023/06/19 10:31:01;;;;;;;11.90;6.25;;;45.80;36.50;41.50;100463;;;;572458;247;23069;-81
2023/06/19 10:33:32;;;;;;;8.45;6.72;;;43.40;38.80;39.70;100459;;;;573131;247;23130;-81
2023/06/19 10:36:18;;;;;;;10.15;7.07;;;39.30;43.50;38.10;100461;;;;573079;247;23128;-80
2023/06/19 10:38:49;;;;;;;8.07;7.00;;;39.10;43.40;36.40;100459;;;;572714;247;24109;-81
2023/06/19 10:41:19;;;;;;;15.43;8.20;;;37.50;46.30;34.90;100461;;;;572505;247;23089;-80
2023/06/19 10:43:53;;;;;;;10.07;7.90;;;36.20;48.40;33.70;100456;;;;572675;247;23100;-80
2023/06/19 10:46:24;;;;;;;10.55;6.90;;;35.00;50.00;33.00;100446;;;;572796;247;24080;-81
2023/06/19 10:48:49;;;;;;;14.98;7.03;;;33.90;51.80;32.50;100454;;;;572611;247;23125;-81
2023/06/19 10:51:23;;;;;;;11.32;6.37;;;33.30;53.40;32.30;100456;;;;572403;247;23133;-80
2023/06/19 10:53:52;;;;;;;11.30;6.75;;;32.80;54.10;32.00;100457;;;;572715;247;23073;-80
2023/06/19 10:56:18;;;;;;;7.32;6.00;;;32.50;54.90;31.60;100444;;;;572472;247;23126;-80
2023/06/19 10:58:48;;;;;;;16.37;6.53;;;32.10;55.40;31.30;100443;;;;572433;247;23127;-80
2023/06/19 11:01:13;;;;;;;12.68;6.87;;;31.80;56.90;31.00;100444;;;;572086;247;23079;-81
2023/06/19 11:03:41;;;;;;;12.37;5.70;;;31.10;58.10;30.40;100443;;;;572560;247;23082;-80
2023/06/19 11:06:11;;;;;;;13.50;5.80;;;30.60;58.50;29.70;100433;;;;573536;246;23095;-81
2023/06/19 11:08:40;;;;;;;9.90;4.87;;;29.90;60.00;29.10;100439;;;;573409;247;23102;-81
2023/06/19 11:11:09;;;;;;;11.27;6.12;;;29.80;59.90;28.50;100431;;;;573185;247;23082;-80